createdAt,value
2024-04-21T00:02:02.025Z,1.70
2024-04-21T00:04:29.664Z,1.60
2024-04-21T00:06:57.091Z,1.70
2024-04-21T00:09:24.505Z,1.70
2024-04-21T00:11:51.984Z,1.80
2024-04-21T00:14:19.710Z,1.80
2024-04-21T00:16:47.233Z,1.80
2024-04-21T00:19:14.858Z,1.70
2024-04-21T00:21:42.427Z,1.60
2024-04-21T00:24:09.858Z,1.60
2024-04-21T00:26:37.189Z,1.50
2024-04-21T00:29:06.398Z,1.60
2024-04-21T00:31:33.847Z,1.50
2024-04-21T00:34:01.519Z,1.50
2024-04-21T00:36:28.936Z,1.50
2024-04-21T00:38:56.356Z,1.50
2024-04-21T00:41:25.097Z,1.50
2024-04-21T00:43:53.059Z,1.50
2024-04-21T00:46:20.625Z,1.40
2024-04-21T00:48:50.992Z,1.40
2024-04-21T00:51:20.876Z,1.40
2024-04-21T00:53:49.284Z,1.30
2024-04-21T00:56:18.189Z,1.30
2024-04-21T00:58:46.619Z,1.20
2024-04-21T01:01:14.127Z,1.20
2024-04-21T01:03:42.472Z,1.20
2024-04-21T01:06:09.972Z,1.20
2024-04-21T01:08:37.318Z,1.20
2024-04-21T01:11:04.822Z,1.20
2024-04-21T01:13:32.221Z,1.20
2024-04-21T01:15:59.966Z,1.10
2024-04-21T01:18:27.697Z,1.10
2024-04-21T01:20:55.040Z,1.10
2024-04-21T01:23:22.642Z,1.00
2024-04-21T01:25:49.959Z,0.90
2024-04-21T01:28:17.324Z,0.80
2024-04-21T01:30:44.781Z,0.70
2024-04-21T01:33:12.214Z,0.70
2024-04-21T01:35:39.547Z,0.60
2024-04-21T01:38:06.905Z,0.70
2024-04-21T01:40:35.130Z,0.70
2024-04-21T01:43:02.606Z,0.80
2024-04-21T01:45:30.042Z,0.90
2024-04-21T01:47:57.408Z,0.90
2024-04-21T01:50:25.327Z,0.90
2024-04-21T01:52:52.781Z,0.90
2024-04-21T01:55:20.184Z,0.80
2024-04-21T01:57:50.432Z,0.80
2024-04-21T02:00:18.142Z,0.80
2024-04-21T02:02:45.724Z,0.80
2024-04-21T02:05:13.378Z,0.80
2024-04-21T02:07:40.831Z,0.80
2024-04-21T02:10:08.519Z,0.90
2024-04-21T02:12:35.886Z,0.90
2024-04-21T02:15:03.193Z,0.90
2024-04-21T02:17:30.726Z,0.90
2024-04-21T02:19:58.073Z,0.90
2024-04-21T02:22:25.488Z,1.00
2024-04-21T02:24:52.880Z,0.90
2024-04-21T02:27:20.229Z,1.00
2024-04-21T02:29:47.511Z,0.90
2024-04-21T02:32:17.270Z,1.00
2024-04-21T02:34:45.097Z,1.00
2024-04-21T02:37:13.062Z,1.00
2024-04-21T02:39:40.405Z,1.00
2024-04-21T02:42:07.715Z,1.00
2024-04-21T02:44:35.744Z,1.00
2024-04-21T02:47:03.495Z,1.00
2024-04-21T02:49:31.001Z,1.00
2024-04-21T02:51:58.408Z,1.00
2024-04-21T02:54:27.869Z,1.00
2024-04-21T02:56:55.156Z,0.90
2024-04-21T02:59:22.554Z,0.80
2024-04-21T03:01:49.915Z,0.80
2024-04-21T03:04:19.220Z,0.90
2024-04-21T03:06:50.161Z,0.90
2024-04-21T03:09:17.511Z,0.80
2024-04-21T03:11:47.672Z,0.70
2024-04-21T03:14:17.150Z,0.60
2024-04-21T03:16:44.520Z,0.50
2024-04-21T03:19:11.851Z,0.60
2024-04-21T03:21:39.194Z,0.60
2024-04-21T03:24:07.016Z,0.70
2024-04-21T03:26:35.059Z,0.70
2024-04-21T03:29:02.385Z,0.70
2024-04-21T03:31:30.160Z,0.70
2024-04-21T03:33:57.725Z,0.70
2024-04-21T03:36:25.078Z,0.80
2024-04-21T03:38:52.342Z,0.80
2024-04-21T03:41:19.796Z,0.90
2024-04-21T03:43:47.708Z,1.00
2024-04-21T03:46:15.636Z,1.00
2024-04-21T03:48:44.228Z,1.00
2024-04-21T03:51:11.599Z,1.10
2024-04-21T03:53:38.947Z,1.20
2024-04-21T03:56:06.632Z,1.20
2024-04-21T03:58:34.637Z,1.20
2024-04-21T04:01:02.200Z,1.20
2024-04-21T04:03:29.947Z,1.30
2024-04-21T04:05:57.249Z,1.30
2024-04-21T04:08:24.587Z,1.50
2024-04-21T04:10:52.405Z,1.30
2024-04-21T04:13:20.163Z,1.30
2024-04-21T04:15:47.591Z,1.40
2024-04-21T04:18:14.985Z,1.30
2024-04-21T04:20:42.352Z,1.30
2024-04-21T04:23:11.671Z,1.40
2024-04-21T04:25:38.998Z,1.30
2024-04-21T04:28:06.517Z,1.30
2024-04-21T04:30:34.096Z,1.20
2024-04-21T04:33:01.580Z,1.20
2024-04-21T04:35:28.921Z,1.20
2024-04-21T04:37:56.259Z,1.30
2024-04-21T04:40:24.021Z,1.30
2024-04-21T04:42:51.474Z,1.30
2024-04-21T04:45:20.747Z,1.30
2024-04-21T04:47:48.212Z,1.30
2024-04-21T04:50:15.599Z,1.30
2024-04-21T04:52:43.187Z,1.30
2024-04-21T04:55:10.551Z,1.30
2024-04-21T04:57:37.905Z,1.30
2024-04-21T05:00:06.657Z,1.30
2024-04-21T05:02:34.790Z,1.40
2024-04-21T05:05:02.188Z,1.40
2024-04-21T05:07:29.575Z,1.40
2024-04-21T05:09:57.367Z,1.40
2024-04-21T05:12:25.010Z,1.50
2024-04-21T05:14:52.337Z,1.60
2024-04-21T05:17:19.744Z,1.60
2024-04-21T05:19:47.120Z,1.60
2024-04-21T05:22:14.866Z,1.60
2024-04-21T05:24:42.285Z,1.50
2024-04-21T05:27:09.832Z,1.50
2024-04-21T05:29:37.145Z,1.20
2024-04-21T05:32:05.001Z,1.10
2024-04-21T05:34:32.385Z,1.10
2024-04-21T05:36:59.727Z,1.10
2024-04-21T05:39:27.103Z,1.10
2024-04-21T05:41:57.440Z,1.00
2024-04-21T05:44:24.784Z,1.10
2024-04-21T05:46:52.224Z,1.10
2024-04-21T05:49:21.134Z,1.00
2024-04-21T05:51:48.647Z,1.10
2024-04-21T05:54:16.182Z,1.10
2024-04-21T05:56:46.429Z,1.00
2024-04-21T05:59:13.790Z,1.00
2024-04-21T06:01:42.006Z,1.00
2024-04-21T06:04:09.622Z,1.10
2024-04-21T06:06:36.998Z,1.10
2024-04-21T06:09:04.366Z,1.20
2024-04-21T06:11:31.783Z,1.20
2024-04-21T06:14:06.283Z,1.20
2024-04-21T06:16:36.264Z,1.30
2024-04-21T06:19:04.291Z,1.20
2024-04-21T06:21:31.702Z,1.20
2024-04-21T06:23:59.028Z,1.20
2024-04-21T06:26:26.337Z,1.10
2024-04-21T06:28:53.979Z,1.10
2024-04-21T06:31:21.362Z,1.00
2024-04-21T06:33:48.758Z,0.90
2024-04-21T06:36:16.062Z,0.90
2024-04-21T06:38:43.486Z,0.80
2024-04-21T06:41:12.641Z,0.80
2024-04-21T06:43:39.931Z,0.60
2024-04-21T06:46:07.516Z,0.60
2024-04-21T06:48:34.979Z,0.60
2024-04-21T06:51:02.370Z,0.70
2024-04-21T06:53:34.892Z,0.70
2024-04-21T06:56:02.904Z,0.70
2024-04-21T06:58:31.033Z,0.80
2024-04-21T07:00:58.429Z,0.80
2024-04-21T07:03:26.011Z,0.80
2024-04-21T07:05:53.631Z,0.90
2024-04-21T07:08:20.914Z,0.80
2024-04-21T07:10:48.246Z,0.90
2024-04-21T07:13:16.328Z,0.90
2024-04-21T07:15:43.830Z,1.00
2024-04-21T07:18:11.308Z,0.90
2024-04-21T07:20:39.216Z,1.10
2024-04-21T07:23:06.630Z,1.30
2024-04-21T07:25:33.987Z,1.40
2024-04-21T07:28:01.457Z,1.40
2024-04-21T07:30:29.170Z,1.50
2024-04-21T07:32:56.738Z,1.40
2024-04-21T07:35:26.679Z,1.40
2024-04-21T07:37:54.210Z,1.40
2024-04-21T07:40:21.550Z,1.40
2024-04-21T07:42:48.916Z,1.50
2024-04-21T07:45:16.643Z,1.50
2024-04-21T07:47:44.341Z,1.50
2024-04-21T07:50:11.656Z,1.10
2024-04-21T07:52:38.968Z,1.20
2024-04-21T07:55:06.492Z,1.30
2024-04-21T07:57:33.852Z,1.50
2024-04-21T08:00:01.194Z,1.80
2024-04-21T08:02:31.189Z,2.00
2024-04-21T08:05:01.644Z,2.10
2024-04-21T08:07:29.049Z,2.50
2024-04-21T08:09:56.413Z,2.70
2024-04-21T08:12:24.173Z,3.10
2024-04-21T08:14:51.469Z,3.60
2024-04-21T08:17:18.851Z,3.80
2024-04-21T08:19:46.188Z,3.70
2024-04-21T08:22:13.542Z,3.50
2024-04-21T08:24:41.441Z,3.40
2024-04-21T08:27:08.887Z,3.50
2024-04-21T08:29:36.853Z,3.60
2024-04-21T08:32:04.361Z,3.40
2024-04-21T08:34:31.728Z,3.40
2024-04-21T08:36:59.053Z,3.30
2024-04-21T08:39:26.434Z,3.30
2024-04-21T08:41:57.980Z,3.10
2024-04-21T08:44:25.289Z,3.00
2024-04-21T08:46:54.458Z,2.80
2024-04-21T08:49:23.499Z,2.90
2024-04-21T08:51:52.625Z,3.30
2024-04-21T08:54:20.116Z,3.80
2024-04-21T08:56:52.905Z,3.90
2024-04-21T08:59:25.712Z,3.70
2024-04-21T09:01:53.551Z,3.60
2024-04-21T09:04:22.295Z,3.90
2024-04-21T09:06:52.105Z,3.90
2024-04-21T09:09:22.562Z,4.00
2024-04-21T09:11:50.669Z,4.20
2024-04-21T09:14:18.033Z,4.70
2024-04-21T09:16:45.350Z,5.00
2024-04-21T09:19:12.696Z,5.70
2024-04-21T09:21:40.072Z,5.50
2024-04-21T09:24:09.106Z,5.40
2024-04-21T09:26:36.428Z,6.60
2024-04-21T09:29:04.271Z,7.10
2024-04-21T09:31:32.143Z,7.50
2024-04-21T09:33:59.562Z,7.80
2024-04-21T09:36:26.984Z,7.70
2024-04-21T09:38:56.421Z,7.00
2024-04-21T09:41:25.990Z,6.50
2024-04-21T09:43:55.384Z,6.10
2024-04-21T09:46:23.919Z,5.50
2024-04-21T09:48:52.248Z,5.80
2024-04-21T09:51:21.701Z,6.00
2024-04-21T09:53:49.617Z,5.70
2024-04-21T09:56:21.392Z,5.70
2024-04-21T09:58:54.823Z,5.80
2024-04-21T10:01:35.137Z,5.60
2024-04-21T10:04:04.002Z,5.40
2024-04-21T10:06:33.333Z,5.10
2024-04-21T10:09:07.522Z,4.90
2024-04-21T10:11:35.019Z,4.80
2024-04-21T10:14:03.577Z,4.10
2024-04-21T10:16:31.880Z,3.40
2024-04-21T10:19:06.448Z,2.90
2024-04-21T10:21:33.803Z,2.50
2024-04-21T10:24:01.215Z,2.30
2024-04-21T10:26:31.015Z,2.30
2024-04-21T10:29:18.906Z,2.10
2024-04-21T10:31:46.296Z,2.30
2024-04-21T10:34:13.998Z,2.40
2024-04-21T10:36:48.670Z,2.80
2024-04-21T10:39:26.346Z,3.20
2024-04-21T10:42:01.499Z,3.70
2024-04-21T10:44:29.009Z,4.20
2024-04-21T10:46:56.365Z,4.40
2024-04-21T10:49:23.766Z,4.60
2024-04-21T10:51:51.612Z,5.60
2024-04-21T10:54:19.351Z,7.00
2024-04-21T10:56:47.091Z,7.40
2024-04-21T10:59:14.479Z,7.30
2024-04-21T11:01:42.054Z,7.40
2024-04-21T11:04:10.132Z,6.80
2024-04-21T11:06:37.747Z,6.20
2024-04-21T11:09:05.291Z,5.30
2024-04-21T11:11:33.187Z,4.70
2024-04-21T11:14:00.563Z,4.20
2024-04-21T11:16:31.600Z,4.30
2024-04-21T11:18:59.394Z,4.20
2024-04-21T11:21:27.513Z,4.20
2024-04-21T11:23:56.029Z,4.60
2024-04-21T11:26:23.420Z,4.90
2024-04-21T11:28:51.038Z,4.80
2024-04-21T11:31:18.376Z,4.80
2024-04-21T11:33:45.727Z,5.30
2024-04-21T11:36:20.905Z,5.40
2024-04-21T11:38:51.599Z,4.80
2024-04-21T11:41:19.547Z,5.10
2024-04-21T11:43:49.970Z,5.00
2024-04-21T11:46:17.662Z,5.30
2024-04-21T11:48:55.538Z,5.30
2024-04-21T11:51:23.805Z,5.30
2024-04-21T11:53:51.393Z,4.90
2024-04-21T11:56:18.935Z,4.40
2024-04-21T11:58:47.081Z,4.20
2024-04-21T12:01:19.339Z,4.20
2024-04-21T12:03:50.963Z,4.10
2024-04-21T12:06:18.383Z,4.10
2024-04-21T12:08:46.315Z,3.90
2024-04-21T12:11:13.726Z,3.70
2024-04-21T12:13:43.040Z,3.70
2024-04-21T12:16:10.496Z,4.10
2024-04-21T12:18:39.664Z,4.20
2024-04-21T12:21:08.827Z,4.40
2024-04-21T12:23:36.141Z,4.90
2024-04-21T12:26:03.484Z,5.20
2024-04-21T12:28:30.877Z,5.30
2024-04-21T12:31:01.868Z,5.50
2024-04-21T12:33:29.649Z,5.80
2024-04-21T12:35:56.994Z,5.50
2024-04-21T12:38:24.300Z,5.40
2024-04-21T12:40:51.650Z,5.40
2024-04-21T12:43:19.091Z,5.40
2024-04-21T12:45:47.486Z,5.50
2024-04-21T12:48:17.528Z,5.60
2024-04-21T12:50:47.435Z,5.70
2024-04-21T12:53:14.861Z,6.30
2024-04-21T12:55:42.235Z,6.70
2024-04-21T12:58:09.658Z,7.10
2024-04-21T13:00:37.087Z,7.60
2024-04-21T13:03:05.570Z,7.80
2024-04-21T13:05:34.022Z,7.40
2024-04-21T13:08:02.417Z,7.00
2024-04-21T13:10:30.077Z,6.00
2024-04-21T13:12:57.933Z,5.00
2024-04-21T13:15:26.279Z,3.60
2024-04-21T13:17:54.064Z,2.70
2024-04-21T13:20:21.630Z,2.40
2024-04-21T13:22:49.481Z,1.90
2024-04-21T13:25:17.378Z,1.50
2024-04-21T13:27:45.301Z,1.10
2024-04-21T13:30:12.828Z,0.90
2024-04-21T13:32:40.294Z,0.80
2024-04-21T13:35:08.085Z,0.80
2024-04-21T13:37:38.644Z,0.80
2024-04-21T13:40:07.141Z,0.90
2024-04-21T13:42:34.669Z,0.70
2024-04-21T13:45:02.294Z,0.60
2024-04-21T13:47:33.294Z,0.60
2024-04-21T13:50:01.354Z,0.70
2024-04-21T13:52:28.931Z,0.90
2024-04-21T13:54:57.681Z,1.10
2024-04-21T13:57:26.759Z,1.40
2024-04-21T13:59:54.446Z,1.80
2024-04-21T14:02:21.842Z,2.20
2024-04-21T14:04:49.262Z,2.80
2024-04-21T14:07:16.926Z,3.10
2024-04-21T14:09:44.295Z,3.40
2024-04-21T14:12:11.769Z,3.50
2024-04-21T14:14:39.494Z,3.50
2024-04-21T14:17:07.379Z,3.50
2024-04-21T14:19:34.886Z,3.90
2024-04-21T14:22:02.297Z,4.30
2024-04-21T14:24:29.684Z,4.90
2024-04-21T14:26:57.600Z,5.40
2024-04-21T14:29:25.039Z,5.50
2024-04-21T14:31:52.358Z,6.00
2024-04-21T14:34:19.826Z,6.40
2024-04-21T14:36:47.153Z,5.70
2024-04-21T14:39:14.444Z,5.30
2024-04-21T14:41:43.234Z,5.20
2024-04-21T14:44:10.848Z,4.90
2024-04-21T14:46:38.315Z,4.60
2024-04-21T14:49:08.170Z,4.60
2024-04-21T14:51:36.057Z,4.20
2024-04-21T14:54:03.892Z,4.00
2024-04-21T14:56:31.276Z,3.60
2024-04-21T14:58:58.623Z,3.70
2024-04-21T15:01:25.983Z,3.90
2024-04-21T15:03:55.443Z,3.70
2024-04-21T15:06:23.160Z,3.10
2024-04-21T15:08:50.682Z,2.60
2024-04-21T15:11:18.052Z,2.30
2024-04-21T15:13:45.476Z,2.00
2024-04-21T15:16:13.122Z,1.80
2024-04-21T15:18:40.573Z,1.70
2024-04-21T15:21:07.966Z,1.70
2024-04-21T15:23:35.276Z,1.80
2024-04-21T15:26:02.670Z,1.80
2024-04-21T15:28:30.026Z,1.50
2024-04-21T15:30:58.558Z,1.50
2024-04-21T15:33:25.979Z,1.40
2024-04-21T15:35:53.377Z,1.20
2024-04-21T15:38:20.650Z,1.20
2024-04-21T15:40:48.019Z,1.40
2024-04-21T15:43:15.473Z,1.50
2024-04-21T15:45:43.036Z,2.00
2024-04-21T15:48:10.737Z,2.80
2024-04-21T15:50:40.899Z,3.10
2024-04-21T15:53:08.224Z,3.40
2024-04-21T15:55:35.981Z,4.00
2024-04-21T15:58:03.460Z,3.70
2024-04-21T16:00:32.370Z,3.80
2024-04-21T16:02:59.790Z,4.30
2024-04-21T16:05:27.134Z,4.40
2024-04-21T16:07:54.455Z,4.50
2024-04-21T16:10:21.863Z,4.50
2024-04-21T16:12:51.577Z,4.30
2024-04-21T16:15:20.460Z,4.10
2024-04-21T16:17:49.859Z,3.60
2024-04-21T16:20:17.456Z,3.60
2024-04-21T16:22:47.069Z,3.60
2024-04-21T16:25:17.052Z,3.60
2024-04-21T16:27:46.723Z,3.40
2024-04-21T16:30:14.227Z,3.10
2024-04-21T16:32:42.765Z,3.30
2024-04-21T16:35:11.193Z,3.60
2024-04-21T16:37:40.440Z,3.80
2024-04-21T16:40:09.160Z,3.90
2024-04-21T16:42:36.678Z,3.70
2024-04-21T16:45:04.456Z,3.40
2024-04-21T16:47:35.968Z,2.90
2024-04-21T16:50:03.895Z,2.80
2024-04-21T16:52:31.651Z,2.70
2024-04-21T16:54:59.661Z,2.60
2024-04-21T16:57:30.077Z,2.50
2024-04-21T16:59:57.690Z,2.40
2024-04-21T17:02:27.944Z,2.20
2024-04-21T17:04:57.014Z,2.10
2024-04-21T17:07:26.987Z,2.00
2024-04-21T17:09:54.722Z,1.90
2024-04-21T17:12:24.344Z,1.60
2024-04-21T17:14:52.181Z,1.60
2024-04-21T17:17:20.723Z,1.50
2024-04-21T17:19:48.501Z,1.50
2024-04-21T17:22:15.814Z,1.60
2024-04-21T17:24:45.030Z,1.40
2024-04-21T17:27:13.994Z,1.30
2024-04-21T17:29:41.358Z,1.30
2024-04-21T17:32:08.943Z,1.20
2024-04-21T17:34:36.937Z,1.20
2024-04-21T17:37:04.595Z,1.10
2024-04-21T17:39:31.931Z,1.10
2024-04-21T17:41:59.380Z,1.00
2024-04-21T17:44:26.762Z,0.90
2024-04-21T17:46:54.261Z,0.90
2024-04-21T17:49:21.959Z,0.90
2024-04-21T17:51:49.357Z,0.90
2024-04-21T17:54:21.838Z,0.80
2024-04-21T17:56:50.131Z,0.80
2024-04-21T17:59:17.841Z,0.80
2024-04-21T18:01:45.254Z,0.80
2024-04-21T18:04:12.693Z,0.80
2024-04-21T18:06:41.410Z,0.80
2024-04-21T18:09:09.263Z,0.80
2024-04-21T18:11:39.756Z,0.70
2024-04-21T18:14:09.226Z,0.80
2024-04-21T18:16:36.748Z,0.80
2024-04-21T18:19:04.402Z,0.80
2024-04-21T18:21:31.771Z,0.90
2024-04-21T18:23:59.164Z,0.90
2024-04-21T18:26:26.495Z,0.90
2024-04-21T18:28:54.142Z,0.90
2024-04-21T18:31:21.459Z,0.90
2024-04-21T18:33:48.944Z,0.80
2024-04-21T18:36:16.269Z,0.90
2024-04-21T18:38:44.211Z,0.90
2024-04-21T18:41:11.716Z,1.00
2024-04-21T18:43:39.114Z,1.00
2024-04-21T18:46:06.848Z,1.00
2024-04-21T18:48:34.434Z,0.90
2024-04-21T18:51:05.194Z,1.00
2024-04-21T18:53:32.713Z,1.00
2024-04-21T18:56:06.583Z,1.00
2024-04-21T18:58:34.899Z,0.90
2024-04-21T19:01:06.712Z,0.90
2024-04-21T19:03:34.250Z,0.90
2024-04-21T19:06:01.706Z,0.90
2024-04-21T19:08:29.937Z,0.80
2024-04-21T19:10:57.854Z,0.70
2024-04-21T19:13:25.633Z,0.60
2024-04-21T19:16:01.306Z,0.60
2024-04-21T19:18:29.232Z,0.60
2024-04-21T19:20:56.899Z,0.50
2024-04-21T19:23:25.078Z,0.60
2024-04-21T19:25:52.559Z,0.50
2024-04-21T19:28:19.949Z,0.60
2024-04-21T19:30:47.756Z,0.50
2024-04-21T19:33:16.323Z,0.50
2024-04-21T19:35:43.989Z,0.50
2024-04-21T19:38:11.308Z,0.60
2024-04-21T19:40:39.772Z,0.60
2024-04-21T19:43:08.331Z,0.60
2024-04-21T19:45:36.156Z,0.60
2024-04-21T19:48:03.773Z,0.70
2024-04-21T19:50:31.430Z,0.60
2024-04-21T19:52:58.775Z,0.60
2024-04-21T19:55:26.271Z,0.60
2024-04-21T19:57:54.040Z,0.60
2024-04-21T20:00:21.396Z,0.50
2024-04-21T20:02:49.091Z,0.50
2024-04-21T20:05:16.635Z,0.50
2024-04-21T20:07:44.008Z,0.50
2024-04-21T20:10:11.422Z,0.40
2024-04-21T20:12:38.727Z,0.40
2024-04-21T20:15:25.391Z,0.40
2024-04-21T20:18:11.561Z,0.50
2024-04-21T20:20:38.927Z,0.50
2024-04-21T20:23:06.281Z,0.50
2024-04-21T20:25:38.728Z,0.60
2024-04-21T20:28:06.241Z,0.70
2024-04-21T20:30:33.903Z,0.60
2024-04-21T20:33:01.293Z,0.60
2024-04-21T20:35:28.644Z,0.60
2024-04-21T20:37:58.118Z,0.60
2024-04-21T20:40:25.639Z,0.60
2024-04-21T20:42:53.088Z,0.50
2024-04-21T20:45:20.518Z,0.60
2024-04-21T20:47:48.035Z,0.70
2024-04-21T20:50:15.382Z,0.60
2024-04-21T20:52:42.838Z,0.60
2024-04-21T20:55:10.564Z,0.60
2024-04-21T20:57:37.932Z,0.50
2024-04-21T21:00:05.653Z,0.40
2024-04-21T21:02:33.762Z,0.40
2024-04-21T21:05:01.503Z,0.30
2024-04-21T21:07:28.866Z,0.30
2024-04-21T21:09:56.164Z,0.20
2024-04-21T21:12:23.672Z,0.20
2024-04-21T21:14:50.964Z,0.30
2024-04-21T21:17:18.408Z,0.30
2024-04-21T21:19:45.893Z,0.20
2024-04-21T21:22:13.349Z,0.10
2024-04-21T21:24:40.952Z,0.10
2024-04-21T21:27:08.267Z,0.20
2024-04-21T21:29:35.570Z,0.10
2024-04-21T21:32:02.862Z,0.10
2024-04-21T21:34:30.271Z,0.10
2024-04-21T21:36:57.677Z,0.10
2024-04-21T21:39:25.013Z,0.10
2024-04-21T21:41:52.287Z,0.10
2024-04-21T21:44:19.631Z,0.20
2024-04-21T21:46:46.932Z,0.10
2024-04-21T21:49:14.403Z,0.10
2024-04-21T21:51:42.378Z,0.00
2024-04-21T21:54:09.958Z,0.10
2024-04-21T21:56:37.283Z,0.10
2024-04-21T21:59:04.669Z,0.10
2024-04-21T22:01:32.178Z,0.10
2024-04-21T22:03:59.651Z,0.10
2024-04-21T22:06:27.018Z,0.10
2024-04-21T22:08:54.568Z,0.00
2024-04-21T22:11:21.916Z,0.10
2024-04-21T22:13:49.415Z,0.20
2024-04-21T22:16:16.775Z,0.10
2024-04-21T22:18:44.251Z,0.20
2024-04-21T22:21:11.566Z,0.20
2024-04-21T22:23:38.872Z,0.10
2024-04-21T22:26:06.501Z,0.20
2024-04-21T22:28:33.960Z,0.20
2024-04-21T22:31:08.015Z,0.10
2024-04-21T22:33:35.833Z,0.20
2024-04-21T22:36:03.358Z,0.20
2024-04-21T22:38:30.775Z,0.30
2024-04-21T22:41:00.687Z,0.20
2024-04-21T22:43:29.041Z,0.30
2024-04-21T22:46:04.110Z,0.30
2024-04-21T22:48:32.726Z,0.30
2024-04-21T22:51:01.315Z,0.30
2024-04-21T22:53:28.746Z,0.30
2024-04-21T22:55:57.138Z,0.30
2024-04-21T22:58:25.078Z,0.30
2024-04-21T23:00:52.953Z,0.40
2024-04-21T23:03:20.904Z,0.40
2024-04-21T23:05:48.816Z,0.40
2024-04-21T23:08:16.135Z,0.40
2024-04-21T23:10:43.565Z,0.50
2024-04-21T23:13:11.212Z,0.40
2024-04-21T23:15:38.587Z,0.50
2024-04-21T23:18:06.254Z,0.40
2024-04-21T23:20:33.785Z,0.40
2024-04-21T23:23:03.089Z,0.40
2024-04-21T23:25:30.420Z,0.40
2024-04-21T23:27:57.743Z,0.30
2024-04-21T23:30:25.034Z,0.30
2024-04-21T23:32:52.371Z,0.20
2024-04-21T23:35:19.754Z,0.10
2024-04-21T23:37:47.325Z,0.10
2024-04-21T23:40:14.687Z,0.10
2024-04-21T23:42:41.999Z,0.10
2024-04-21T23:45:09.342Z,0.10
2024-04-21T23:47:37.547Z,0.10
2024-04-21T23:50:05.144Z,0.20
2024-04-21T23:52:32.574Z,0.20
2024-04-21T23:55:00.408Z,0.20
2024-04-21T23:57:27.799Z,0.20
2024-04-21T23:59:55.111Z,0.20
